createdAt,value
2019-05-01T00:02:38.621Z,34.67
2019-05-01T00:05:09.742Z,41.57
2019-05-01T00:07:39.348Z,35.37
2019-05-01T00:10:09.023Z,37.53
2019-05-01T00:12:38.412Z,44.00
2019-05-01T00:15:09.129Z,41.57
2019-05-01T00:17:38.508Z,36.27
2019-05-01T00:20:08.798Z,34.07
2019-05-01T00:22:38.187Z,36.43
2019-05-01T00:25:07.905Z,41.13
2019-05-01T00:27:37.421Z,41.67
2019-05-01T00:30:09.545Z,42.07
2019-05-01T00:32:38.911Z,36.30
2019-05-01T00:35:08.371Z,35.17
2019-05-01T00:37:37.741Z,30.83
2019-05-01T00:40:07.822Z,37.57
2019-05-01T00:42:37.201Z,38.73
2019-05-01T00:45:08.095Z,36.50
2019-05-01T00:47:37.469Z,38.67
2019-05-01T00:50:10.482Z,37.43
2019-05-01T00:52:40.007Z,41.90
2019-05-01T00:55:27.527Z,41.13
2019-05-01T00:58:07.691Z,41.03
2019-05-01T01:00:43.142Z,35.27
2019-05-01T01:03:12.999Z,40.13
2019-05-01T01:05:42.378Z,34.00
2019-05-01T01:08:11.752Z,38.20
2019-05-01T01:10:41.149Z,39.43
2019-05-01T01:13:10.573Z,37.90
2019-05-01T01:15:39.932Z,40.67
2019-05-01T01:18:09.298Z,46.67
2019-05-01T01:20:38.778Z,34.87
2019-05-01T01:23:08.211Z,39.33
2019-05-01T01:25:37.724Z,37.10
2019-05-01T01:28:07.178Z,35.53
2019-05-01T01:30:36.797Z,44.03
2019-05-01T01:33:06.367Z,42.73
2019-05-01T01:35:35.741Z,41.00
2019-05-01T01:38:05.270Z,39.80
2019-05-01T01:40:36.449Z,38.40
2019-05-01T01:43:24.902Z,45.03
2019-05-01T01:46:05.227Z,36.77
2019-05-01T01:48:34.917Z,39.80
2019-05-01T01:51:05.108Z,37.83
2019-05-01T01:53:35.079Z,37.30
2019-05-01T01:56:04.863Z,40.63
2019-05-01T01:58:35.089Z,38.77
2019-05-01T02:01:09.508Z,36.00
2019-05-01T02:03:39.183Z,37.83
2019-05-01T02:06:08.961Z,40.33
2019-05-01T02:08:38.586Z,42.13
2019-05-01T02:11:08.099Z,36.47
2019-05-01T02:13:37.777Z,37.43
2019-05-01T02:16:07.135Z,36.77
2019-05-01T02:18:36.538Z,35.73
2019-05-01T02:21:06.425Z,39.67
2019-05-01T02:23:35.806Z,37.03
2019-05-01T02:26:06.519Z,37.60
2019-05-01T02:28:46.437Z,34.97
2019-05-01T02:31:28.291Z,37.73
2019-05-01T02:33:56.788Z,37.07
2019-05-01T02:36:28.676Z,38.47
2019-05-01T02:39:00.045Z,33.97
2019-05-01T02:41:36.125Z,35.73
2019-05-01T02:44:10.433Z,33.10
2019-05-01T02:46:44.464Z,39.50
2019-05-01T02:49:24.346Z,38.17
2019-05-01T02:51:54.433Z,33.60
2019-05-01T02:54:24.894Z,35.10
2019-05-01T02:56:57.132Z,43.77
2019-05-01T02:59:30.759Z,43.77
2019-05-01T03:02:02.595Z,40.27
2019-05-01T03:04:33.566Z,35.00
2019-05-01T03:07:04.680Z,33.20
2019-05-01T03:09:35.765Z,36.23
2019-05-01T03:12:06.399Z,35.93
2019-05-01T03:14:40.411Z,32.90
2019-05-01T03:17:16.140Z,36.47
2019-05-01T03:19:53.347Z,33.97
2019-05-01T03:22:24.656Z,30.07
2019-05-01T03:24:54.938Z,34.40
2019-05-01T03:27:24.482Z,32.87
2019-05-01T03:29:54.003Z,36.03
2019-05-01T03:32:23.624Z,30.57
2019-05-01T03:34:53.543Z,33.90
2019-05-01T03:37:23.040Z,38.30
2019-05-01T03:39:53.274Z,35.27
2019-05-01T03:42:23.182Z,35.13
2019-05-01T03:44:53.076Z,34.17
2019-05-01T03:47:23.103Z,37.77
2019-05-01T03:49:53.030Z,33.60
2019-05-01T03:52:22.933Z,33.13
2019-05-01T03:54:53.049Z,36.17
2019-05-01T03:57:22.867Z,34.50
2019-05-01T03:59:52.449Z,33.57
2019-05-01T04:02:32.790Z,39.33
2019-05-01T04:04:55.063Z,39.83
2019-05-01T04:07:24.512Z,37.33
2019-05-01T04:09:54.039Z,33.80
2019-05-01T04:12:23.957Z,37.63
2019-05-01T04:14:53.395Z,35.87
2019-05-01T04:17:27.285Z,43.60
2019-05-01T04:19:56.728Z,41.13
2019-05-01T04:22:26.340Z,41.63
2019-05-01T04:24:56.139Z,41.07
2019-05-01T04:27:27.375Z,38.00
2019-05-01T04:29:58.953Z,36.90
2019-05-01T04:32:30.701Z,38.33
2019-05-01T04:35:17.581Z,39.33
2019-05-01T04:37:47.342Z,39.50
2019-05-01T04:40:18.906Z,39.23
2019-05-01T04:42:48.985Z,37.57
2019-05-01T04:45:19.410Z,35.43
2019-05-01T04:47:49.519Z,37.70
2019-05-01T04:50:19.212Z,38.80
2019-05-01T04:52:48.909Z,32.90
2019-05-01T04:55:19.225Z,40.83
2019-05-01T04:57:49.001Z,34.10
2019-05-01T05:00:18.784Z,32.67
2019-05-01T05:02:49.942Z,30.37
2019-05-01T05:05:19.949Z,34.93
2019-05-01T05:07:49.477Z,33.53
2019-05-01T05:10:19.020Z,32.87
2019-05-01T05:12:50.164Z,35.67
2019-05-01T05:15:21.397Z,37.83
2019-05-01T05:17:50.907Z,39.00
2019-05-01T05:20:20.801Z,32.97
2019-05-01T05:22:50.360Z,36.03
2019-05-01T05:25:20.238Z,34.77
2019-05-01T05:27:51.785Z,40.60
2019-05-01T05:30:23.695Z,44.40
2019-05-01T05:32:56.341Z,45.40
2019-05-01T05:35:28.667Z,40.63
2019-05-01T05:38:04.326Z,41.57
2019-05-01T05:40:36.768Z,42.23
2019-05-01T05:43:07.933Z,42.00
2019-05-01T05:45:37.647Z,44.50
2019-05-01T05:48:07.221Z,44.97
2019-05-01T05:50:58.416Z,40.60
2019-05-01T05:53:32.895Z,44.67
2019-05-01T05:56:09.989Z,41.73
2019-05-01T05:58:46.853Z,42.00
2019-05-01T06:01:30.105Z,42.47
2019-05-01T06:04:21.705Z,39.30
2019-05-01T06:06:59.744Z,39.37
2019-05-01T06:09:37.249Z,39.80
2019-05-01T06:12:08.924Z,40.47
2019-05-01T06:14:43.172Z,39.33
2019-05-01T06:17:14.498Z,41.30
2019-05-01T06:19:54.468Z,41.93
2019-05-01T06:22:26.899Z,45.97
2019-05-01T06:25:01.900Z,41.63
2019-05-01T06:27:32.077Z,47.70
2019-05-01T06:30:02.375Z,43.43
2019-05-01T06:32:33.415Z,44.73
2019-05-01T06:35:04.622Z,49.77
2019-05-01T06:38:02.017Z,46.40
2019-05-01T06:40:38.373Z,47.57
2019-05-01T06:43:13.050Z,46.87
2019-05-01T06:46:00.919Z,45.43
2019-05-01T06:48:33.277Z,47.80
2019-05-01T06:51:05.092Z,49.37
2019-05-01T06:53:36.178Z,48.83
2019-05-01T06:56:05.937Z,44.33
2019-05-01T06:58:35.398Z,50.10
2019-05-01T07:01:05.145Z,46.63
2019-05-01T07:03:34.569Z,51.23
2019-05-01T07:06:13.781Z,52.30
2019-05-01T07:08:39.293Z,51.63
2019-05-01T07:11:06.642Z,46.83
2019-05-01T07:13:40.014Z,46.17
2019-05-01T07:16:09.203Z,52.27
2019-05-01T07:18:38.694Z,51.00
2019-05-01T07:21:08.067Z,48.00
2019-05-01T07:23:37.616Z,50.40
2019-05-01T07:26:09.947Z,48.33
2019-05-01T07:28:39.866Z,52.20
2019-05-01T07:31:10.991Z,49.70
2019-05-01T07:33:41.206Z,50.40
2019-05-01T07:36:15.522Z,50.23
2019-05-01T07:38:45.539Z,50.10
2019-05-01T07:41:15.006Z,47.43
2019-05-01T07:43:59.778Z,50.30
2019-05-01T07:46:28.959Z,49.40
2019-05-01T07:48:59.160Z,48.27
2019-05-01T07:51:29.244Z,47.70
2019-05-01T07:54:04.032Z,52.53
2019-05-01T07:56:32.429Z,49.77
2019-05-01T07:59:02.140Z,50.97
2019-05-01T08:01:33.168Z,48.73
2019-05-01T08:04:02.581Z,46.53
2019-05-01T08:06:33.513Z,49.30
2019-05-01T08:09:02.985Z,45.80
2019-05-01T08:11:32.395Z,50.10
2019-05-01T08:14:07.609Z,46.50
2019-05-01T08:16:32.879Z,44.80
2019-05-01T08:19:04.273Z,44.17
2019-05-01T08:21:39.531Z,43.20
2019-05-01T08:24:08.927Z,44.53
2019-05-01T08:26:39.621Z,40.97
2019-05-01T08:29:27.564Z,42.23
2019-05-01T08:32:03.080Z,41.80
2019-05-01T08:34:34.247Z,42.50
2019-05-01T08:37:06.454Z,41.20
2019-05-01T08:39:34.957Z,36.73
2019-05-01T08:42:07.096Z,41.27
2019-05-01T08:44:46.341Z,42.20
2019-05-01T08:47:20.773Z,36.38
2019-05-01T08:49:52.987Z,38.10
2019-05-01T08:52:22.435Z,41.73
2019-05-01T08:54:54.891Z,40.63
2019-05-01T08:57:24.352Z,37.55
2019-05-01T08:59:55.690Z,39.80
2019-05-01T09:02:25.100Z,40.48
2019-05-01T09:05:02.012Z,35.08
2019-05-01T09:07:25.553Z,34.70
2019-05-01T09:09:55.048Z,35.70
2019-05-01T09:12:24.425Z,34.40
2019-05-01T09:14:53.828Z,36.25
2019-05-01T09:17:23.214Z,38.63
2019-05-01T09:19:52.613Z,39.05
2019-05-01T09:22:22.155Z,35.90
2019-05-01T09:24:51.612Z,37.23
2019-05-01T09:27:29.580Z,33.15
2019-05-01T09:30:04.708Z,32.60
2019-05-01T09:32:34.223Z,36.45
2019-05-01T09:35:15.139Z,37.88
2019-05-01T09:37:35.451Z,35.28
2019-05-01T09:40:09.087Z,33.30
2019-05-01T09:42:39.110Z,40.15
2019-05-01T09:45:09.327Z,38.30
2019-05-01T09:47:38.783Z,32.80
2019-05-01T09:50:08.689Z,30.97
2019-05-01T09:52:42.740Z,34.20
2019-05-01T09:55:17.814Z,37.48
2019-05-01T09:57:45.438Z,34.47
2019-05-01T10:00:16.692Z,36.65
2019-05-01T10:02:46.088Z,35.80
2019-05-01T10:05:28.226Z,33.75
2019-05-01T10:07:46.607Z,36.60
2019-05-01T10:10:17.090Z,34.43
2019-05-01T10:12:48.380Z,33.88
2019-05-01T10:15:17.797Z,35.88
2019-05-01T10:17:47.284Z,33.13
2019-05-01T10:20:16.678Z,35.40
2019-05-01T10:22:46.128Z,35.27
2019-05-01T10:25:15.673Z,37.60
2019-05-01T10:27:49.400Z,37.13
2019-05-01T10:30:37.586Z,34.30
2019-05-01T10:33:08.728Z,34.10
2019-05-01T10:35:56.312Z,34.70
2019-05-01T10:38:25.778Z,34.20
2019-05-01T10:40:55.235Z,33.00
2019-05-01T10:43:24.616Z,37.23
2019-05-01T10:45:54.089Z,31.97
2019-05-01T10:48:23.462Z,32.80
2019-05-01T10:50:52.846Z,31.87
2019-05-01T10:53:22.324Z,34.07
2019-05-01T10:55:51.833Z,32.10
2019-05-01T10:58:21.264Z,32.53
2019-05-01T11:00:52.289Z,29.70
2019-05-01T11:03:21.674Z,28.15
2019-05-01T11:05:56.054Z,33.80
2019-05-01T11:08:22.324Z,33.97
2019-05-01T11:10:51.698Z,31.87
2019-05-01T11:13:21.157Z,31.30
2019-05-01T11:15:50.569Z,31.73
2019-05-01T11:18:19.918Z,27.87
2019-05-01T11:20:49.321Z,30.30
2019-05-01T11:23:18.719Z,30.60
2019-05-01T11:25:48.168Z,33.33
2019-05-01T11:28:17.637Z,33.18
2019-05-01T11:30:47.069Z,32.33
2019-05-01T11:33:23.761Z,28.73
2019-05-01T11:36:09.151Z,37.50
2019-05-01T11:38:37.557Z,32.75
2019-05-01T11:41:11.381Z,36.63
2019-05-01T11:43:40.864Z,36.03
2019-05-01T11:46:10.229Z,30.77
2019-05-01T11:48:39.649Z,41.20
2019-05-01T11:51:09.054Z,33.77
2019-05-01T11:53:38.441Z,34.83
2019-05-01T11:56:07.824Z,30.63
2019-05-01T11:58:37.309Z,29.93
2019-05-01T12:01:08.605Z,28.75
2019-05-01T12:03:38.012Z,25.97
2019-05-01T12:06:07.369Z,25.30
2019-05-01T12:08:36.856Z,26.13
2019-05-01T12:11:08.018Z,26.15
2019-05-01T12:13:43.862Z,26.90
2019-05-01T12:16:16.471Z,24.33
2019-05-01T12:18:46.000Z,28.62
2019-05-01T12:21:15.397Z,23.07
2019-05-01T12:23:44.750Z,19.60
2019-05-01T12:26:14.228Z,25.90
2019-05-01T12:28:43.607Z,27.50
2019-05-01T12:31:13.005Z,26.20
2019-05-01T12:33:42.385Z,29.30
2019-05-01T12:36:11.873Z,26.25
2019-05-01T12:38:41.284Z,24.92
2019-05-01T12:41:21.112Z,25.50
2019-05-01T12:43:50.524Z,27.75
2019-05-01T12:46:37.799Z,28.87
2019-05-01T12:49:07.296Z,26.77
2019-05-01T12:51:37.864Z,24.75
2019-05-01T12:54:15.147Z,26.40
2019-05-01T12:56:58.039Z,25.02
2019-05-01T12:59:28.417Z,31.93
2019-05-01T13:01:57.800Z,35.08
2019-05-01T13:04:27.232Z,29.57
2019-05-01T13:06:59.202Z,27.17
2019-05-01T13:09:28.580Z,35.55
2019-05-01T13:11:57.995Z,27.75
2019-05-01T13:14:27.388Z,33.45
2019-05-01T13:16:56.805Z,32.50
2019-05-01T13:19:26.169Z,27.10
2019-05-01T13:21:55.576Z,32.35
2019-05-01T13:24:24.962Z,31.60
2019-05-01T13:27:01.840Z,32.17
2019-05-01T13:29:32.868Z,34.73
2019-05-01T13:32:19.002Z,34.27
2019-05-01T13:34:48.427Z,37.15
2019-05-01T13:37:17.882Z,38.85
2019-05-01T13:39:47.337Z,34.00
2019-05-01T13:42:16.752Z,34.80
2019-05-01T13:44:46.240Z,32.50
2019-05-01T13:47:15.621Z,35.15
2019-05-01T13:49:45.074Z,34.83
2019-05-01T13:52:14.576Z,30.65
2019-05-01T13:54:44.010Z,31.35
2019-05-01T13:57:13.455Z,31.10
2019-05-01T13:59:42.936Z,30.17
2019-05-01T14:02:12.583Z,30.50
2019-05-01T14:04:42.050Z,34.27
2019-05-01T14:07:16.689Z,34.48
2019-05-01T14:09:42.926Z,31.33
2019-05-01T14:12:12.310Z,29.80
2019-05-01T14:14:41.702Z,29.25
2019-05-01T14:17:11.247Z,29.95
2019-05-01T14:19:42.256Z,29.05
2019-05-01T14:22:15.734Z,25.72
2019-05-01T14:24:46.851Z,23.47
2019-05-01T14:27:16.246Z,25.48
2019-05-01T14:29:45.641Z,22.77
2019-05-01T14:32:15.022Z,26.52
2019-05-01T14:34:44.513Z,28.83
2019-05-01T14:37:13.971Z,25.62
2019-05-01T14:39:43.393Z,22.73
2019-05-01T14:42:12.915Z,21.85
2019-05-01T14:44:42.425Z,23.67
2019-05-01T14:47:11.983Z,21.48
2019-05-01T14:49:41.457Z,23.05
2019-05-01T14:52:10.930Z,23.83
2019-05-01T14:54:40.327Z,23.05
2019-05-01T14:57:09.766Z,23.00
2019-05-01T14:59:39.199Z,23.00
2019-05-01T15:02:08.588Z,25.27
2019-05-01T15:04:38.092Z,22.32
2019-05-01T15:07:07.619Z,24.92
2019-05-01T15:09:37.047Z,24.43
2019-05-01T15:12:08.238Z,24.57
2019-05-01T15:14:39.326Z,23.50
2019-05-01T15:17:10.363Z,25.37
2019-05-01T15:19:44.372Z,25.85
2019-05-01T15:22:13.817Z,25.48
2019-05-01T15:24:43.220Z,27.98
2019-05-01T15:27:12.617Z,25.92
2019-05-01T15:29:42.021Z,24.18
2019-05-01T15:32:11.500Z,24.50
2019-05-01T15:34:40.882Z,27.40
2019-05-01T15:37:10.423Z,30.55
2019-05-01T15:39:41.443Z,25.27
2019-05-01T15:42:18.110Z,27.00
2019-05-01T15:44:47.872Z,26.12
2019-05-01T15:47:17.283Z,28.00
2019-05-01T15:49:46.766Z,25.10
2019-05-01T15:52:16.224Z,26.52
2019-05-01T15:54:45.632Z,26.52
2019-05-01T15:57:15.032Z,28.60
2019-05-01T15:59:44.431Z,29.45
2019-05-01T16:02:13.818Z,31.85
2019-05-01T16:04:43.245Z,32.15
2019-05-01T16:07:12.622Z,27.02
2019-05-01T16:09:42.141Z,30.50
2019-05-01T16:12:15.870Z,30.43
2019-05-01T16:14:46.282Z,26.07
2019-05-01T16:17:15.835Z,27.15
2019-05-01T16:19:45.245Z,26.17
2019-05-01T16:22:14.695Z,26.33
2019-05-01T16:24:44.102Z,26.65
2019-05-01T16:27:13.568Z,29.95
2019-05-01T16:29:42.998Z,30.77
2019-05-01T16:32:12.422Z,32.23
2019-05-01T16:34:41.946Z,36.00
2019-05-01T16:37:11.561Z,35.00
2019-05-01T16:39:48.530Z,34.75
2019-05-01T16:42:18.159Z,32.42
2019-05-01T16:44:47.558Z,32.10
2019-05-01T16:47:17.011Z,32.38
2019-05-01T16:49:46.464Z,33.95
2019-05-01T16:52:17.236Z,31.27
2019-05-01T16:54:58.799Z,30.32
2019-05-01T16:57:17.895Z,29.82
2019-05-01T16:59:47.373Z,31.55
2019-05-01T17:02:21.444Z,31.42
2019-05-01T17:04:58.369Z,31.97
2019-05-01T17:07:41.452Z,28.95
2019-05-01T17:10:12.920Z,29.92
2019-05-01T17:12:44.151Z,31.52
2019-05-01T17:15:13.979Z,30.43
2019-05-01T17:17:44.548Z,31.20
2019-05-01T17:20:15.123Z,31.93
2019-05-01T17:22:46.219Z,28.80
2019-05-01T17:25:15.889Z,31.73
2019-05-01T17:27:45.309Z,34.17
2019-05-01T17:30:20.222Z,34.70
2019-05-01T17:32:49.637Z,36.27
2019-05-01T17:35:19.021Z,35.90
2019-05-01T17:37:48.409Z,35.50
2019-05-01T17:40:17.999Z,32.83
2019-05-01T17:42:47.411Z,31.97
2019-05-01T17:45:17.145Z,31.63
2019-05-01T17:47:46.576Z,33.73
2019-05-01T17:50:20.861Z,29.73
2019-05-01T17:52:47.463Z,30.90
2019-05-01T17:55:16.972Z,34.80
2019-05-01T17:57:46.380Z,36.70
2019-05-01T18:00:17.978Z,32.60
2019-05-01T18:02:51.703Z,34.47
2019-05-01T18:05:25.548Z,30.30
2019-05-01T18:07:55.045Z,34.17
2019-05-01T18:10:24.662Z,33.37
2019-05-01T18:12:54.068Z,32.67
2019-05-01T18:15:23.614Z,35.70
2019-05-01T18:17:53.018Z,34.13
2019-05-01T18:20:22.621Z,35.07
2019-05-01T18:22:53.788Z,29.40
2019-05-01T18:25:32.963Z,33.17
2019-05-01T18:28:03.916Z,30.43
2019-05-01T18:30:35.103Z,31.60
2019-05-01T18:33:05.048Z,33.33
2019-05-01T18:35:34.840Z,28.20
2019-05-01T18:38:22.318Z,27.57
2019-05-01T18:40:53.493Z,27.90
2019-05-01T18:43:27.079Z,25.73
2019-05-01T18:45:56.697Z,23.10
2019-05-01T18:48:26.424Z,27.67
2019-05-01T18:50:56.488Z,28.93
2019-05-01T18:53:26.177Z,26.93
2019-05-01T18:55:55.752Z,25.93
2019-05-01T18:58:25.216Z,29.40
2019-05-01T19:00:54.833Z,30.90
2019-05-01T19:03:24.249Z,37.70
2019-05-01T19:05:53.796Z,30.30
2019-05-01T19:08:23.327Z,36.23
2019-05-01T19:10:52.952Z,33.63
2019-05-01T19:13:22.750Z,34.73
2019-05-01T19:15:52.269Z,37.63
2019-05-01T19:18:21.839Z,38.63
2019-05-01T19:20:59.378Z,40.07
2019-05-01T19:23:27.911Z,36.23
2019-05-01T19:25:56.566Z,40.17
2019-05-01T19:28:25.053Z,49.77
2019-05-01T19:30:56.685Z,44.83
2019-05-01T19:33:25.677Z,48.23
2019-05-01T19:35:55.210Z,45.40
2019-05-01T19:38:24.700Z,52.70
2019-05-01T19:40:54.281Z,48.87
2019-05-01T19:43:23.818Z,52.10
2019-05-01T19:45:53.333Z,47.33
2019-05-01T19:48:22.804Z,48.33
2019-05-01T19:50:52.350Z,52.73
2019-05-01T19:53:29.089Z,51.80
2019-05-01T19:55:58.632Z,50.77
2019-05-01T19:58:28.175Z,55.30
2019-05-01T20:01:00.061Z,57.73
2019-05-01T20:03:30.785Z,63.93
2019-05-01T20:06:05.486Z,61.80
2019-05-01T20:08:32.397Z,69.70
2019-05-01T20:11:01.932Z,65.53
2019-05-01T20:13:31.432Z,69.33
2019-05-01T20:16:00.956Z,68.07
2019-05-01T20:18:30.405Z,73.70
2019-05-01T20:20:59.878Z,71.57
2019-05-01T20:23:31.240Z,73.37
2019-05-01T20:26:00.480Z,77.87
2019-05-01T20:28:29.871Z,74.77
2019-05-01T20:30:59.401Z,80.93
2019-05-01T20:33:33.242Z,83.37
2019-05-01T20:36:00.425Z,73.47
2019-05-01T20:38:31.214Z,71.57
2019-05-01T20:41:00.594Z,80.10
2019-05-01T20:43:30.054Z,81.03
2019-05-01T20:45:59.431Z,73.40
2019-05-01T20:48:28.895Z,70.57
2019-05-01T20:50:58.297Z,85.93
2019-05-01T20:53:27.756Z,85.40
2019-05-01T20:56:01.552Z,72.93
2019-05-01T20:58:31.001Z,75.03
2019-05-01T21:01:02.143Z,77.40
2019-05-01T21:03:31.747Z,92.13
2019-05-01T21:06:07.816Z,88.17
2019-05-01T21:08:39.346Z,85.33
2019-05-01T21:11:19.386Z,82.00
2019-05-01T21:13:48.778Z,83.23
2019-05-01T21:16:18.445Z,91.37
2019-05-01T21:18:47.823Z,95.33
2019-05-01T21:21:17.184Z,92.07
2019-05-01T21:23:48.151Z,97.77
2019-05-01T21:26:18.149Z,88.30
2019-05-01T21:28:47.741Z,89.57
2019-05-01T21:31:17.328Z,83.03
2019-05-01T21:33:50.552Z,92.27
2019-05-01T21:36:17.858Z,85.97
2019-05-01T21:38:47.301Z,87.33
2019-05-01T21:41:18.408Z,92.93
2019-05-01T21:43:47.886Z,86.00
2019-05-01T21:46:17.369Z,96.90
2019-05-01T21:48:46.757Z,95.27
2019-05-01T21:51:16.142Z,97.90
2019-05-01T21:53:46.554Z,98.50
2019-05-01T21:56:16.056Z,94.80
2019-05-01T21:58:45.451Z,96.50
2019-05-01T22:01:14.976Z,98.53
2019-05-01T22:03:44.462Z,98.33
2019-05-01T22:06:15.389Z,93.00
2019-05-01T22:08:45.102Z,89.03
2019-05-01T22:11:14.657Z,82.07
2019-05-01T22:13:44.102Z,82.47
2019-05-01T22:16:18.448Z,89.67
2019-05-01T22:18:51.361Z,80.80
2019-05-01T22:21:31.417Z,86.73
2019-05-01T22:24:20.757Z,85.53
2019-05-01T22:26:51.794Z,84.13
2019-05-01T22:29:27.200Z,76.63
2019-05-01T22:31:58.805Z,79.67
2019-05-01T22:34:30.090Z,78.23
2019-05-01T22:36:59.479Z,83.50
2019-05-01T22:39:30.573Z,85.80
2019-05-01T22:41:59.987Z,83.03
2019-05-01T22:44:29.366Z,80.63
2019-05-01T22:46:58.758Z,73.20
2019-05-01T22:49:28.146Z,72.87
2019-05-01T22:51:57.533Z,74.37
2019-05-01T22:54:26.904Z,75.60
2019-05-01T22:56:56.289Z,82.33
2019-05-01T22:59:25.650Z,77.03
2019-05-01T23:01:56.679Z,86.93
2019-05-01T23:04:26.043Z,78.63
2019-05-01T23:06:55.553Z,78.60
2019-05-01T23:09:28.463Z,69.37
2019-05-01T23:11:56.748Z,77.93
2019-05-01T23:14:26.783Z,74.03
2019-05-01T23:17:03.302Z,76.50
2019-05-01T23:19:32.968Z,80.87
2019-05-01T23:22:02.345Z,82.00
2019-05-01T23:24:31.800Z,75.23
2019-05-01T23:27:01.212Z,88.37
2019-05-01T23:29:30.646Z,79.07
2019-05-01T23:32:00.192Z,84.00
2019-05-01T23:34:29.559Z,91.10
2019-05-01T23:36:59.021Z,85.10
2019-05-01T23:39:28.390Z,81.23
2019-05-01T23:41:57.791Z,86.20
2019-05-01T23:44:27.168Z,81.80
2019-05-01T23:46:56.583Z,78.27
2019-05-01T23:49:26.213Z,83.03
2019-05-01T23:51:58.590Z,84.53
2019-05-01T23:54:26.837Z,80.80
2019-05-01T23:56:56.289Z,85.73
2019-05-01T23:59:25.669Z,81.73
